Back to Top

My Weather Underground Personal Weather Station Historical Data with Graphs...

Delerius Weather Station Historical Data
Daily Summary for November 30, 2020 Units:  English    Metric   Both
Daily Weekly Monthly Yearly
  High: Low: Average:
Temperature: 50.9 °F 40.6 °F 45.5 °F
Dew Point: 48.4 °F 36.1 °F 43.2 °F
Humidity: 98% 76.2% 92%
Wind Speed: 26.8mph 0.9mph 12.4mph
Wind Gust: 39mph - -
Wind- - West
Pressure: 30.3 in 30 in -
Precipitation: 0.06 in    
 
 
Tabular Data for November 30, 2020
Time Temperature Dew Point Pressure Wind Wind Speed Wind Gust Humidity Rainfall Rate (Hourly) solar
00:04 43.3 °F 42.4 °F 30.3 in WSW 2.4 mph 6 mph 97% 0 in 0 W/m2
00:09 43.5 °F 42.6 °F 30.3 in WSW 4 mph 7 mph 97% 0 in 0 W/m2
00:14 43.7 °F 42.8 °F 30.3 in WSW 4.5 mph 7 mph 97% 0 in 0 W/m2
00:19 43.7 °F 42.8 °F 30.3 in WSW 3.5 mph 6 mph 97% 0 in 0 W/m2
00:24 43.5 °F 42.6 °F 30.3 in WSW 1.6 mph 4 mph 97% 0 in 0 W/m2
00:29 43.5 °F 42.6 °F 30.3 in WSW 1.6 mph 4 mph 97% 0 in 0 W/m2
00:34 43.5 °F 42.6 °F 30.3 in WSW 1.9 mph 4 mph 97% 0 in 0 W/m2
00:39 43.3 °F 42.6 °F 30.3 in WSW 0.9 mph 4 mph 97% 0 in 0 W/m2
00:44 43.3 °F 42.4 °F 30.3 in WSW 2 mph 6 mph 97% 0 in 0 W/m2
00:49 43.2 °F 42.4 °F 30.3 in WSW 4.3 mph 7 mph 97% 0 in 0 W/m2
00:54 43 °F 42.3 °F 30.3 in West 4 mph 6 mph 97% 0 in 0 W/m2
00:59 43 °F 42.3 °F 30.3 in West 3.7 mph 5 mph 97% 0 in 0 W/m2
01:04 43 °F 42.3 °F 30.3 in West 2.6 mph 5 mph 97% 0 in 0 W/m2
01:09 43.3 °F 42.4 °F 30.3 in West 3.1 mph 5 mph 97.2% 0 in 0 W/m2
01:14 43.2 °F 42.4 °F 30.3 in WSW 4.7 mph 6 mph 97% 0 in 0 W/m2
01:19 43.3 °F 42.6 °F 30.3 in WSW 5 mph 6 mph 97.6% 0 in 0 W/m2
01:24 43.3 °F 42.8 °F 30.3 in WSW 4.9 mph 7 mph 98% 0 in 0 W/m2
01:29 43.3 °F 42.8 °F 30.3 in SW 5.3 mph 7 mph 98% 0 in 0 W/m2
01:34 43.3 °F 43 °F 30.3 in SW 5 mph 7 mph 98% 0 in 0 W/m2
01:39 43.5 °F 43 °F 30.3 in SW 4.8 mph 7 mph 97.8% 0 in 0 W/m2
01:44 43.5 °F 42.6 °F 30.3 in WSW 5.6 mph 8 mph 97% 0 in 0 W/m2
01:49 43.5 °F 42.6 °F 30.3 in WSW 5.4 mph 8 mph 97% 0 in 0 W/m2
01:54 43.3 °F 42.4 °F 30.3 in WSW 4.9 mph 8 mph 97% 0 in 0 W/m2
01:59 43.3 °F 42.4 °F 30.3 in SW 2.4 mph 7 mph 97% 0 in 0 W/m2
02:04 43.3 °F 42.4 °F 30.3 in SW 4.3 mph 7 mph 97% 0 in 0 W/m2
02:09 43.3 °F 42.4 °F 30.3 in SW 3 mph 6 mph 97% 0 in 0 W/m2
02:14 43.2 °F 42.4 °F 30.3 in SSW 4.7 mph 7 mph 97% 0 in 0 W/m2
02:19 43 °F 42.3 °F 30.3 in SSW 4.3 mph 6 mph 97% 0 in 0 W/m2
02:24 42.8 °F 41.9 °F 30.3 in SW 4.3 mph 6 mph 97% 0 in 0 W/m2
02:29 42.8 °F 42.1 °F 30.3 in SW 4.5 mph 6 mph 97% 0 in 0 W/m2
02:34 43 °F 42.1 °F 30.3 in SW 3.7 mph 6 mph 97% 0 in 0 W/m2
02:39 43 °F 42.1 °F 30.3 in SW 2.8 mph 6 mph 97% 0 in 0 W/m2
02:44 43 °F 42.3 °F 30.3 in SW 3.1 mph 6 mph 97% 0 in 0 W/m2
02:49 43 °F 42.3 °F 30.3 in SW 2.9 mph 6 mph 97% 0 in 0 W/m2
02:54 43 °F 42.3 °F 30.3 in SW 1.7 mph 8 mph 97% 0 in 0 W/m2
02:59 43.2 °F 42.3 °F 30.3 in SW 5.3 mph 8 mph 97% 0 in 0 W/m2
03:04 43.2 °F 42.4 °F 30.3 in SW 5.8 mph 7 mph 97% 0 in 0 W/m2
03:09 43.2 °F 42.4 °F 30.3 in SW 4.9 mph 7 mph 97% 0 in 0 W/m2
03:14 43.2 °F 42.4 °F 30.3 in SW 5.6 mph 8 mph 97% 0 in 0 W/m2
03:19 43.3 °F 42.6 °F 30.3 in SW 6.8 mph 9 mph 97% 0 in 0 W/m2
03:24 43.5 °F 42.6 °F 30.3 in WSW 5.2 mph 9 mph 97% 0 in 0 W/m2
03:29 43.5 °F 42.6 °F 30.3 in SW 5.6 mph 8 mph 97% 0 in 0 W/m2
03:34 43.5 °F 42.6 °F 30.2 in SW 5.2 mph 8 mph 97% 0 in 0 W/m2
03:39 43.3 °F 42.4 °F 30.2 in SW 4.7 mph 7 mph 97% 0 in 0 W/m2
03:44 43.2 °F 42.4 °F 30.2 in SW 5 mph 7 mph 97% 0 in 0 W/m2
03:49 43.2 °F 42.4 °F 30.2 in SW 5 mph 7 mph 97% 0 in 0 W/m2
03:54 43.2 °F 42.4 °F 30.2 in SW 5 mph 7 mph 97% 0 in 0 W/m2
03:59 43.3 °F 42.4 °F 30.2 in SW 5.5 mph 7 mph 97% 0 in 0 W/m2
04:04 43.3 °F 42.4 °F 30.2 in SW 5.7 mph 9 mph 97% 0 in 0 W/m2
04:09 43.3 °F 42.6 °F 30.2 in SW 6 mph 9 mph 97% 0 in 0 W/m2
04:14 43.5 °F 42.6 °F 30.2 in SW 6 mph 9 mph 97% 0 in 0 W/m2
04:19 43.5 °F 42.6 °F 30.2 in SW 7.6 mph 10 mph 97% 0 in 0 W/m2
04:24 43.9 °F 43 °F 30.2 in SW 8 mph 11 mph 97% 0 in 0 W/m2
04:29 43.7 °F 42.8 °F 30.2 in SW 7.8 mph 10 mph 97% 0 in 0 W/m2
04:34 43.5 °F 42.6 °F 30.2 in SW 7 mph 10 mph 97% 0 in 0 W/m2
04:39 43.7 °F 42.8 °F 30.2 in SW 8 mph 10 mph 97% 0 in 0 W/m2
04:44 43.9 °F 43 °F 30.2 in SW 8.6 mph 12 mph 97% 0 in 0 W/m2
04:49 43.9 °F 43.2 °F 30.2 in SW 9.5 mph 13 mph 97% 0 in 0 W/m2
04:54 44.1 °F 43.3 °F 30.2 in SW 9.3 mph 13 mph 97% 0 in 0 W/m2
04:59 44.2 °F 43.3 °F 30.2 in SW 9.8 mph 12 mph 97% 0 in 0 W/m2
05:04 44.2 °F 43.5 °F 30.2 in SW 8.9 mph 12 mph 97% 0 in 0 W/m2
05:09 44.2 °F 43.3 °F 30.2 in SW 8.5 mph 11 mph 97% 0 in 0 W/m2
05:14 44.2 °F 43.3 °F 30.2 in SW 8.9 mph 12 mph 97% 0 in 0 W/m2
05:19 44.2 °F 43.3 °F 30.2 in SW 10 mph 13 mph 97% 0 in 0 W/m2
05:24 44.2 °F 43.3 °F 30.2 in SW 11.2 mph 15 mph 97% 0 in 0 W/m2
05:29 44.4 °F 43.5 °F 30.2 in SW 10.4 mph 14 mph 97% 0 in 0 W/m2
05:34 44.8 °F 43.9 °F 30.2 in SW 10.7 mph 14 mph 97% 0 in 0 W/m2
05:39 44.8 °F 44.1 °F 30.2 in SW 10 mph 13 mph 97% 0 in 0 W/m2
05:44 45 °F 44.2 °F 30.2 in SW 10.9 mph 15 mph 97% 0 in 0 W/m2
05:49 45 °F 44.2 °F 30.2 in SW 11.6 mph 15 mph 97% 0 in 0 W/m2
05:54 45.1 °F 44.4 °F 30.2 in WSW 11.5 mph 16 mph 97% 0 in 0 W/m2
05:59 45.3 °F 44.4 °F 30.2 in SW 10.3 mph 13 mph 97% 0 in 0 W/m2
06:04 45.3 °F 44.6 °F 30.2 in SW 10.8 mph 13 mph 97% 0 in 0 W/m2
06:09 45.5 °F 44.4 °F 30.2 in SW 9.8 mph 14 mph 96% 0 in 0 W/m2
06:14 45.5 °F 44.4 °F 30.2 in SW 11 mph 15 mph 96% 0.01 in 0 W/m2
06:19 45.5 °F 44.4 °F 30.2 in WSW 10.4 mph 14 mph 96% 0.01 in 0 W/m2
06:24 45.7 °F 44.6 °F 30.2 in SW 10.7 mph 14 mph 96% 0.01 in 0 W/m2
06:29 45.7 °F 44.6 °F 30.2 in SW 10.5 mph 14 mph 96% 0.02 in 0 W/m2
06:34 45.7 °F 44.6 °F 30.2 in SW 11.3 mph 15 mph 96% 0.02 in 0 W/m2
06:39 45.5 °F 44.4 °F 30.2 in SW 11.4 mph 14 mph 96% 0.02 in 0 W/m2
06:44 45.5 °F 44.4 °F 30.2 in SW 11 mph 14 mph 96% 0.02 in 0 W/m2
06:49 45.3 °F 44.4 °F 30.2 in SW 10.1 mph 14 mph 96.4% 0.02 in 0 W/m2
06:54 45.3 °F 44.6 °F 30.2 in SW 10.7 mph 14 mph 97% 0.02 in 0 W/m2
06:59 45.5 °F 44.8 °F 30.2 in SW 10.6 mph 14 mph 97% 0.02 in 0 W/m2
07:04 45.5 °F 44.6 °F 30.2 in SW 10.1 mph 13 mph 97% 0.02 in 0 W/m2
07:09 45.5 °F 44.8 °F 30.2 in SW 11.5 mph 15 mph 97% 0.02 in 0 W/m2
07:14 45.7 °F 45 °F 30.2 in SW 12.2 mph 16 mph 97% 0.02 in 0 W/m2
07:19 45.7 °F 45 °F 30.2 in SW 12.1 mph 16 mph 97% 0.02 in 0 W/m2
07:24 45.7 °F 45 °F 30.2 in SW 11.7 mph 15 mph 97% 0.02 in 0 W/m2
07:29 45.9 °F 45.1 °F 30.2 in SW 12.4 mph 18 mph 97% 0.02 in 0 W/m2
07:34 45.9 °F 45.1 °F 30.2 in SW 12.1 mph 18 mph 97% 0.02 in 0 W/m2
07:39 45.9 °F 45.1 °F 30.2 in SW 13 mph 19 mph 97% 0.02 in 0 W/m2
07:44 45.9 °F 45.1 °F 30.2 in SW 13.9 mph 20 mph 97% 0.02 in 0 W/m2
07:49 45.9 °F 45 °F 30.2 in SW 13.2 mph 18 mph 97% 0.02 in 0 W/m2
07:54 45.9 °F 45 °F 30.2 in SW 13 mph 18 mph 97% 0.01 in 0 W/m2
07:59 45.9 °F 45 °F 30.2 in SW 14.5 mph 20 mph 97% 0.01 in 0 W/m2
08:04 45.9 °F 45.1 °F 30.2 in SW 13.2 mph 19 mph 97% 0.02 in 0 W/m2
08:09 45.9 °F 45.1 °F 30.2 in SW 14 mph 19 mph 97% 0.02 in 0 W/m2
08:14 45.9 °F 45.1 °F 30.2 in SW 13 mph 18 mph 97% 0.02 in 0 W/m2
08:19 45.9 °F 45.1 °F 30.2 in SW 13 mph 16 mph 97% 0.02 in 0 W/m2
08:24 45.9 °F 45.1 °F 30.2 in SW 12.1 mph 16 mph 97% 0.02 in 0 W/m2
08:29 45.9 °F 45.1 °F 30.2 in SW 12 mph 16 mph 97% 0.02 in 5 W/m2
08:34 45.9 °F 45.1 °F 30.2 in SW 11.7 mph 14 mph 97% 0.02 in 5 W/m2
08:39 45.9 °F 45.1 °F 30.2 in SW 11.9 mph 15 mph 97% 0.02 in 5 W/m2
08:44 46 °F 45.1 °F 30.2 in SW 11.9 mph 15 mph 97% 0.02 in 9 W/m2
08:49 46 °F 45.1 °F 30.2 in SW 10.7 mph 14 mph 97% 0.02 in 12 W/m2
08:54 46 °F 45.1 °F 30.2 in SW 11.4 mph 16 mph 97% 0.02 in 11 W/m2
08:59 46 °F 45.1 °F 30.2 in SW 11 mph 14 mph 97% 0.02 in 16 W/m2
09:04 46.2 °F 45.3 °F 30.2 in WSW 11.6 mph 15 mph 97% 0.02 in 19 W/m2
09:09 46 °F 45.3 °F 30.2 in SW 11.9 mph 15 mph 97% 0.02 in 19 W/m2
09:14 46.2 °F 45.3 °F 30.2 in SW 13.3 mph 16 mph 97% 0.02 in 16 W/m2
09:19 46.2 °F 45.3 °F 30.2 in SW 12.4 mph 16 mph 97% 0.01 in 14 W/m2
09:24 46.2 °F 45.3 °F 30.2 in SW 12.4 mph 18 mph 97% 0.01 in 18 W/m2
09:29 46.2 °F 45.3 °F 30.2 in SW 12.7 mph 18 mph 97% 0 in 19 W/m2
09:34 46.2 °F 45.3 °F 30.2 in SW 13.5 mph 19 mph 97% 0 in 21 W/m2
09:39 46.2 °F 45.3 °F 30.2 in SW 15.1 mph 19 mph 97% 0 in 16 W/m2
09:44 46.4 °F 45.5 °F 30.1 in SW 15.5 mph 20 mph 97% 0 in 19 W/m2
09:49 46.4 °F 45.7 °F 30.1 in SW 14.4 mph 20 mph 97% 0 in 25 W/m2
09:54 46.6 °F 45.7 °F 30.1 in SW 14.8 mph 20 mph 97% 0 in 33 W/m2
09:59 46.6 °F 45.9 °F 30.1 in SW 13.3 mph 20 mph 97% 0 in 39 W/m2
10:04 46.6 °F 45.9 °F 30.1 in SW 13 mph 22 mph 97% 0 in 33 W/m2
10:09 46.6 °F 45.9 °F 30.1 in SW 12.9 mph 22 mph 97% 0 in 26 W/m2
10:14 46.8 °F 46 °F 30.1 in SW 13 mph 18 mph 97% 0 in 23 W/m2
10:19 46.8 °F 46 °F 30.1 in SW 13.8 mph 19 mph 97% 0 in 21 W/m2
10:24 46.8 °F 46 °F 30.1 in SW 14.3 mph 19 mph 97% 0 in 21 W/m2
10:29 46.8 °F 45.9 °F 30.1 in SW 13.8 mph 19 mph 97% 0 in 16 W/m2
10:34 46.6 °F 45.9 °F 30.1 in SW 12.6 mph 19 mph 97% 0 in 14 W/m2
10:39 46.6 °F 45.9 °F 30.1 in SW 13.4 mph 19 mph 97% 0 in 11 W/m2
10:44 46.6 °F 45.9 °F 30.1 in SW 14.2 mph 20 mph 97% 0 in 14 W/m2
10:49 46.6 °F 45.9 °F 30.1 in SW 14.1 mph 20 mph 96.9% 0 in 14 W/m2
10:54 46.6 °F 45.5 °F 30.1 in WSW 12.5 mph 19 mph 96% 0 in 12 W/m2
10:59 46.6 °F 45.7 °F 30.1 in WSW 12.1 mph 18 mph 96.7% 0 in 16 W/m2
11:04 46.6 °F 45.9 °F 30.1 in WSW 13.2 mph 19 mph 97% 0 in 19 W/m2
11:09 46.8 °F 45.9 °F 30.1 in SW 12.9 mph 18 mph 96.8% 0 in 28 W/m2
11:14 46.8 °F 45.7 °F 30.1 in WSW 13 mph 18 mph 96% 0 in 42 W/m2
11:19 46.9 °F 45.9 °F 30.1 in WSW 12.5 mph 18 mph 96% 0 in 54 W/m2
11:24 46.9 °F 45.9 °F 30.1 in WSW 12.3 mph 21 mph 96% 0 in 60 W/m2
11:29 47.1 °F 46 °F 30.1 in SW 12.8 mph 21 mph 96% 0 in 93 W/m2
11:34 47.7 °F 46.6 °F 30.1 in WSW 14.9 mph 21 mph 96% 0 in 97 W/m2
11:39 48 °F 46.8 °F 30.1 in WSW 16.5 mph 23 mph 95.7% 0 in 107 W/m2
11:44 48.4 °F 46.9 °F 30.1 in WSW 14.5 mph 21 mph 94.8% 0 in 90 W/m2
11:49 48.6 °F 46.9 °F 30.1 in WSW 12.2 mph 16 mph 94% 0 in 90 W/m2
11:54 48.7 °F 46.9 °F 30.1 in WSW 12.7 mph 22 mph 93.3% 0 in 123 W/m2
11:59 48.9 °F 46.9 °F 30.1 in WSW 14.4 mph 22 mph 93% 0 in 162 W/m2
12:04 49.1 °F 46.9 °F 30.1 in WSW 14.3 mph 26 mph 92.2% 0 in 221 W/m2
12:09 49.3 °F 47.1 °F 30.1 in WSW 13.5 mph 22 mph 92% 0 in 223 W/m2
12:14 49.5 °F 47.1 °F 30.1 in WSW 14.2 mph 23 mph 92% 0 in 165 W/m2
12:19 49.5 °F 46.9 °F 30.1 in WSW 14.7 mph 26 mph 91% 0 in 98 W/m2
12:24 49.5 °F 46.9 °F 30.1 in WSW 15.2 mph 25 mph 91% 0 in 44 W/m2
12:29 49.5 °F 46.9 °F 30.1 in WSW 14.1 mph 22 mph 91% 0 in 47 W/m2
12:34 49.5 °F 46.9 °F 30.1 in WSW 14.9 mph 22 mph 91% 0 in 51 W/m2
12:39 49.5 °F 46.9 °F 30.1 in WSW 14.7 mph 22 mph 91% 0 in 56 W/m2
12:44 49.5 °F 46.8 °F 30.1 in WSW 13.5 mph 22 mph 90.3% 0 in 56 W/m2
12:49 49.5 °F 46.9 °F 30.1 in WSW 12.2 mph 21 mph 91% 0 in 44 W/m2
12:54 49.5 °F 46.9 °F 30.1 in WSW 16.1 mph 26 mph 91% 0 in 44 W/m2
12:59 49.5 °F 46.9 °F 30.1 in WSW 13 mph 22 mph 91% 0 in 30 W/m2
13:04 49.5 °F 46.9 °F 30.1 in WSW 12.4 mph 20 mph 91% 0 in 37 W/m2
13:09 49.5 °F 46.9 °F 30.1 in WSW 11.7 mph 20 mph 91% 0 in 32 W/m2
13:14 49.6 °F 46.9 °F 30.1 in WSW 12.5 mph 20 mph 90.4% 0 in 21 W/m2
13:19 49.5 °F 46.9 °F 30.1 in WSW 9.8 mph 16 mph 90.7% 0 in 32 W/m2
13:24 49.5 °F 46.9 °F 30.1 in WSW 12.2 mph 19 mph 91% 0 in 26 W/m2
13:29 49.5 °F 46.9 °F 30 in WSW 12.1 mph 19 mph 91% 0 in 47 W/m2
13:34 49.6 °F 46.9 °F 30 in WSW 12.9 mph 19 mph 91% 0 in 42 W/m2
13:39 49.6 °F 47.1 °F 30 in WSW 14.1 mph 21 mph 91% 0 in 46 W/m2
13:44 49.6 °F 47.1 °F 30 in WSW 13.8 mph 23 mph 91% 0 in 33 W/m2
13:49 49.6 °F 47.1 °F 30 in WSW 12.7 mph 20 mph 91% 0 in 23 W/m2
13:54 49.6 °F 47.1 °F 30 in West 10.6 mph 19 mph 91% 0 in 37 W/m2
13:59 49.6 °F 47.1 °F 30 in West 13.5 mph 21 mph 91% 0 in 25 W/m2
14:04 49.8 °F 47.3 °F 30 in West 12.9 mph 20 mph 91% 0 in 25 W/m2
14:09 49.8 °F 47.3 °F 30 in West 11.7 mph 21 mph 91% 0 in 26 W/m2
14:14 50 °F 47.5 °F 30 in West 14.6 mph 24 mph 91% 0 in 28 W/m2
14:19 50.2 °F 47.7 °F 30 in West 15.3 mph 24 mph 91% 0 in 32 W/m2
14:24 50.2 °F 47.8 °F 30 in West 14.2 mph 22 mph 91.6% 0 in 26 W/m2
14:29 50.2 °F 47.8 °F 30 in West 13.9 mph 23 mph 91.8% 0 in 25 W/m2
14:34 50.2 °F 47.8 °F 30 in West 14 mph 23 mph 92% 0 in 26 W/m2
14:39 50.2 °F 47.8 °F 30 in West 13.2 mph 24 mph 92% 0 in 40 W/m2
14:44 50.2 °F 47.8 °F 30 in West 12.4 mph 24 mph 92% 0 in 42 W/m2
14:49 50 °F 47.8 °F 30 in West 12.3 mph 21 mph 92.2% 0 in 40 W/m2
14:54 50 °F 48 °F 30 in WSW 13.9 mph 21 mph 93% 0 in 28 W/m2
14:59 49.8 °F 47.8 °F 30 in West 13.9 mph 23 mph 93% 0 in 21 W/m2
15:04 50 °F 48 °F 30 in West 13.7 mph 22 mph 93% 0 in 23 W/m2
15:09 50.2 °F 48.2 °F 30 in West 12 mph 22 mph 93% 0 in 12 W/m2
15:14 50.2 °F 48.2 °F 30 in West 12.1 mph 19 mph 93% 0 in 9 W/m2
15:19 50.2 °F 48.2 °F 30 in West 12 mph 18 mph 93% 0 in 7 W/m2
15:24 50.2 °F 48.2 °F 30 in West 12.5 mph 21 mph 93% 0 in 5 W/m2
15:29 50.4 °F 48.4 °F 30 in West 15.5 mph 22 mph 93% 0 in 0 W/m2
15:34 50.4 °F 48.2 °F 30 in West 12.8 mph 22 mph 92.1% 0 in 5 W/m2
15:39 50.4 °F 48 °F 30 in West 12.4 mph 24 mph 92% 0 in 5 W/m2
15:44 50.5 °F 48.2 °F 30 in West 15 mph 24 mph 91.7% 0 in 5 W/m2
15:49 50.5 °F 48 °F 30 in West 14.4 mph 21 mph 91% 0 in 0 W/m2
15:54 50.5 °F 47.8 °F 30 in West 17.7 mph 27 mph 90.3% 0 in 0 W/m2
15:59 50.5 °F 47.7 °F 30 in West 19.3 mph 27 mph 89.8% 0 in 0 W/m2
16:04 50.4 °F 47.5 °F 30 in West 16.1 mph 23 mph 90% 0 in 0 W/m2
16:09 50.2 °F 47.5 °F 30 in West 17.6 mph 25 mph 90% 0 in 0 W/m2
16:14 50.2 °F 47.5 °F 30 in West 18.3 mph 25 mph 90% 0 in 0 W/m2
16:19 50.2 °F 47.3 °F 30 in West 19.8 mph 26 mph 89.9% 0 in 0 W/m2
16:24 50.2 °F 47.3 °F 30 in West 17.5 mph 27 mph 89.8% 0 in 0 W/m2
16:29 50.4 °F 47.5 °F 30 in West 21.4 mph 29 mph 90% 0 in 0 W/m2
16:34 50.5 °F 47.3 °F 30 in WNW 24.8 mph 35 mph 88.7% 0.01 in 0 W/m2
16:39 50.9 °F 47.3 °F 30 in WNW 22.6 mph 30 mph 87.5% 0.01 in 0 W/m2
16:44 50.4 °F 46.4 °F 30 in NW 20.7 mph 34 mph 86.2% 0.01 in 0 W/m2
16:49 49.5 °F 44.8 °F 30 in NW 25 mph 35 mph 84.1% 0.01 in 0 W/m2
16:54 49.3 °F 43.5 °F 30.1 in NW 24.8 mph 35 mph 80.6% 0.01 in 0 W/m2
16:59 49.1 °F 42.6 °F 30 in NW 24.9 mph 35 mph 78% 0.01 in 0 W/m2
17:04 48.6 °F 42.1 °F 30.1 in NW 22 mph 29 mph 78% 0.01 in 0 W/m2
17:09 48.4 °F 41.5 °F 30.1 in NW 23 mph 30 mph 77.3% 0.01 in 0 W/m2
17:14 47.8 °F 41.2 °F 30.1 in NW 22.8 mph 30 mph 77% 0.01 in 0 W/m2
17:19 47.7 °F 40.8 °F 30.1 in NW 21.4 mph 30 mph 77% 0.01 in 0 W/m2
17:24 47.7 °F 40.6 °F 30.1 in NW 23.7 mph 32 mph 77% 0.01 in 0 W/m2
17:29 47.8 °F 40.6 °F 30.1 in NW 22.2 mph 34 mph 76.2% 0.01 in 0 W/m2
17:34 47.8 °F 40.8 °F 30.1 in NW 23.3 mph 34 mph 76.8% 0.01 in 0 W/m2
17:39 47.7 °F 41 °F 30.1 in NW 22.9 mph 34 mph 77.7% 0 in 0 W/m2
17:44 47.3 °F 41.4 °F 30.1 in NW 23.4 mph 39 mph 79.7% 0 in 0 W/m2
17:49 46.8 °F 41.5 °F 30.1 in NW 26.8 mph 39 mph 81.7% 0 in 0 W/m2
17:54 46.6 °F 41.7 °F 30.1 in NNW 26.1 mph 35 mph 83.4% 0 in 0 W/m2
17:59 46 °F 41.9 °F 30.1 in NNW 21.4 mph 30 mph 85.4% 0 in 0 W/m2
18:04 45.9 °F 42.1 °F 30.1 in NNW 17.8 mph 27 mph 86.8% 0 in 0 W/m2
18:09 45.7 °F 42.1 °F 30.1 in NNW 15.2 mph 21 mph 87.3% 0 in 0 W/m2
18:14 45.5 °F 42.3 °F 30.1 in NW 12.4 mph 20 mph 88% 0 in 0 W/m2
18:19 45.3 °F 42.3 °F 30.1 in NW 12.2 mph 18 mph 88.7% 0 in 0 W/m2
18:24 45.1 °F 42.1 °F 30.1 in NW 13.2 mph 21 mph 89% 0 in 0 W/m2
18:29 45 °F 41.9 °F 30.1 in NW 12.2 mph 18 mph 89% 0 in 0 W/m2
18:34 45 °F 41.9 °F 30.1 in NW 11.8 mph 18 mph 89.2% 0 in 0 W/m2
18:39 44.8 °F 42.1 °F 30.1 in NW 10.3 mph 15 mph 90% 0 in 0 W/m2
18:44 44.6 °F 41.7 °F 30.1 in NW 11.7 mph 15 mph 90% 0 in 0 W/m2
18:49 44.6 °F 41.7 °F 30.1 in NW 11.5 mph 16 mph 90% 0 in 0 W/m2
18:54 44.4 °F 41.7 °F 30.1 in NW 9.9 mph 13 mph 90% 0 in 0 W/m2
18:59 44.2 °F 41.5 °F 30.1 in NW 9.3 mph 12 mph 90.1% 0 in 0 W/m2
19:04 43.9 °F 41.5 °F 30.1 in NW 8.9 mph 11 mph 91% 0 in 0 W/m2
19:09 43.9 °F 41.4 °F 30.1 in WNW 8.1 mph 11 mph 91% 0 in 0 W/m2
19:14 43.5 °F 41.2 °F 30.1 in WNW 9.1 mph 12 mph 91% 0 in 0 W/m2
19:19 43.5 °F 41 °F 30.1 in WNW 9.7 mph 12 mph 91% 0 in 0 W/m2
19:24 43.3 °F 40.8 °F 30.1 in WNW 9.9 mph 16 mph 90.8% 0 in 0 W/m2
19:29 43.3 °F 40.6 °F 30.1 in NW 12.6 mph 19 mph 90% 0 in 0 W/m2
19:34 43.5 °F 40.3 °F 30.1 in NW 11.4 mph 14 mph 88.4% 0 in 0 W/m2
19:39 43.3 °F 39.9 °F 30.1 in WNW 11.2 mph 14 mph 88% 0 in 0 W/m2
19:44 43.3 °F 39.9 °F 30.1 in WNW 11.5 mph 18 mph 88% 0 in 0 W/m2
19:49 43.2 °F 39.7 °F 30.1 in WNW 12.1 mph 18 mph 88% 0 in 0 W/m2
19:54 43.2 °F 39.7 °F 30.1 in WNW 12.9 mph 18 mph 87.8% 0 in 0 W/m2
19:59 43.2 °F 39.6 °F 30.1 in WNW 13.4 mph 18 mph 87% 0 in 0 W/m2
20:04 43 °F 39.4 °F 30.1 in WNW 14.3 mph 20 mph 87% 0 in 0 W/m2
20:09 43 °F 39.2 °F 30.1 in WNW 14 mph 20 mph 86.4% 0 in 0 W/m2
20:14 42.8 °F 39 °F 30.1 in WNW 15 mph 21 mph 86% 0 in 0 W/m2
20:19 42.8 °F 38.8 °F 30.1 in WNW 16 mph 22 mph 86% 0 in 0 W/m2
20:24 42.6 °F 38.7 °F 30.1 in WNW 16 mph 22 mph 86% 0 in 0 W/m2
20:29 42.6 °F 38.5 °F 30.1 in WNW 17.3 mph 25 mph 85.2% 0 in 0 W/m2
20:34 42.8 °F 38.5 °F 30.1 in WNW 18.9 mph 29 mph 84.6% 0 in 0 W/m2
20:39 43 °F 38.3 °F 30.1 in WNW 20.3 mph 29 mph 83.3% 0 in 0 W/m2
20:44 43 °F 38.1 °F 30.1 in WNW 19.7 mph 27 mph 82.4% 0 in 0 W/m2
20:49 43 °F 37.9 °F 30.2 in NW 19.5 mph 27 mph 82% 0 in 0 W/m2
20:54 43 °F 37.8 °F 30.2 in WNW 18.9 mph 29 mph 81.5% 0 in 0 W/m2
20:59 43 °F 37.6 °F 30.2 in WNW 17.6 mph 27 mph 81.5% 0 in 0 W/m2
21:04 42.8 °F 37.8 °F 30.2 in WNW 17.5 mph 23 mph 82% 0 in 0 W/m2
21:09 42.6 °F 37.6 °F 30.2 in WNW 17.8 mph 23 mph 82% 0 in 0 W/m2
21:14 42.6 °F 37.4 °F 30.2 in WNW 18.3 mph 24 mph 81.7% 0 in 0 W/m2
21:19 42.6 °F 37.2 °F 30.2 in WNW 18.6 mph 27 mph 81% 0 in 0 W/m2
21:24 42.6 °F 37.2 °F 30.2 in WNW 19.3 mph 26 mph 81% 0 in 0 W/m2
21:29 42.4 °F 37 °F 30.2 in NW 17.6 mph 22 mph 81% 0 in 0 W/m2
21:34 42.4 °F 37 °F 30.2 in NW 16.7 mph 22 mph 81% 0 in 0 W/m2
21:39 42.4 °F 37 °F 30.2 in NW 17 mph 27 mph 81% 0 in 0 W/m2
21:44 42.3 °F 36.9 °F 30.2 in NW 16.3 mph 23 mph 81% 0 in 0 W/m2
21:49 42.1 °F 37 °F 30.2 in NW 14.4 mph 22 mph 82% 0 in 0 W/m2
21:54 42.1 °F 37 °F 30.2 in NW 15.2 mph 22 mph 82% 0 in 0 W/m2
21:59 42.1 °F 37 °F 30.2 in NW 17 mph 23 mph 82% 0 in 0 W/m2
22:04 42.1 °F 37 °F 30.2 in NW 17.2 mph 23 mph 82% 0 in 0 W/m2
22:09 41.9 °F 36.9 °F 30.2 in NW 18.1 mph 26 mph 82% 0 in 0 W/m2
22:14 41.7 °F 36.7 °F 30.2 in NW 16.5 mph 26 mph 82.1% 0 in 0 W/m2
22:19 41.5 °F 36.9 °F 30.2 in NW 16.8 mph 24 mph 83% 0 in 0 W/m2
22:24 41.5 °F 36.7 °F 30.2 in NW 17.1 mph 24 mph 82.3% 0 in 0 W/m2
22:29 41.5 °F 36.5 °F 30.2 in NW 18 mph 24 mph 82.2% 0 in 0 W/m2
22:34 41.5 °F 36.5 °F 30.2 in NW 17.5 mph 24 mph 82% 0 in 0 W/m2
22:39 41.5 °F 36.5 °F 30.2 in NW 17.1 mph 24 mph 82% 0 in 0 W/m2
22:44 41.4 °F 36.3 °F 30.2 in NW 16.2 mph 23 mph 82% 0 in 0 W/m2
22:49 41.4 °F 36.3 °F 30.2 in NW 16.1 mph 23 mph 82% 0 in 0 W/m2
22:54 41.4 °F 36.3 °F 30.2 in NW 17.3 mph 28 mph 82% 0 in 0 W/m2
22:59 41.4 °F 36.5 °F 30.2 in NW 16.3 mph 22 mph 82.7% 0 in 0 W/m2
23:04 41.2 °F 36.3 °F 30.2 in NW 15.5 mph 22 mph 83% 0 in 0 W/m2
23:09 41.2 °F 36.3 °F 30.2 in NW 16.1 mph 23 mph 83% 0 in 0 W/m2
23:14 41 °F 36.1 °F 30.2 in NW 13.5 mph 19 mph 83% 0 in 0 W/m2
23:19 40.8 °F 36.1 °F 30.2 in NW 13.4 mph 19 mph 83.3% 0 in 0 W/m2
23:24 40.8 °F 36.1 °F 30.2 in WNW 15.4 mph 21 mph 83.2% 0 in 0 W/m2
23:29 40.8 °F 36.1 °F 30.2 in WNW 15.2 mph 20 mph 83% 0 in 0 W/m2
23:34 40.8 °F 36.1 °F 30.2 in WNW 14.7 mph 21 mph 83% 0 in 0 W/m2
23:39 40.8 °F 36.1 °F 30.2 in WNW 15.1 mph 20 mph 83.2% 0 in 0 W/m2
23:44 40.8 °F 36.1 °F 30.2 in WNW 15.7 mph 21 mph 83% 0 in 0 W/m2
23:49 40.8 °F 36.1 °F 30.2 in NW 14 mph 20 mph 83% 0 in 0 W/m2
23:54 40.6 °F 36.1 °F 30.2 in NW 14.6 mph 20 mph 83.5% 0 in 0 W/m2
23:59 40.6 °F 36.1 °F 30.2 in NW 12.2 mph 20 mph 83.8% 0 in 0 W/m2
North Lincolnshire Weather
Compliments of Weather Underground - 2 mb

Data updates at regular intervals.